Time;durP1;ratioP1;P1;durP2;ratioP2;P2;SDS_P1;SDS_P2;PMS_P1;PMS_P2;Temp;Humidity;BMP_temperature;BMP_pressure;BME280_temperature;BME280_humidity;BME280_pressure;Samples;Min_cycle;Max_cycle;Signal;HPM_P1;HPM_P2
2023/05/03 00:01:36;;;;;;;1.42;0.98;;;;;;;16.45;60.73;102856.84;6212426;23;20074;-53
2023/05/03 00:04:02;;;;;;;1.63;0.80;;;;;;;16.42;60.57;102856.06;6212437;23;20039;-53
2023/05/03 00:06:28;;;;;;;0.70;0.70;;;;;;;16.42;60.59;102861.44;6213291;23;20074;-53
2023/05/03 00:08:53;;;;;;;1.83;1.08;;;;;;;16.42;60.29;102855.22;6212274;23;20008;-53
2023/05/03 00:11:19;;;;;;;1.17;1.10;;;;;;;16.42;60.55;102858.75;6212655;23;20013;-52
2023/05/03 00:13:45;;;;;;;1.65;1.00;;;;;;;16.41;60.27;102859.72;6212617;23;20044;-53
2023/05/03 00:16:11;;;;;;;0.93;0.90;;;;;;;16.41;60.40;102861.53;6212279;23;20004;-53
2023/05/03 00:18:36;;;;;;;1.25;1.02;;;;;;;16.40;60.26;102859.81;6212449;23;20043;-52
2023/05/03 00:21:02;;;;;;;1.00;1.00;;;;;;;16.40;60.12;102866.03;6212210;23;20008;-53
2023/05/03 00:23:28;;;;;;;1.90;1.23;;;;;;;16.39;60.28;102853.56;6212882;23;20008;-51
2023/05/03 00:25:55;;;;;;;1.08;0.90;;;;;;;16.39;60.34;102858.06;6212359;23;20000;-53
2023/05/03 00:28:20;;;;;;;1.20;1.10;;;;;;;16.39;60.39;102858.06;6212304;23;20000;-52
2023/05/03 00:30:46;;;;;;;0.88;0.88;;;;;;;16.38;59.96;102856.34;6212082;23;20055;-53
2023/05/03 00:33:11;;;;;;;2.72;1.10;;;;;;;16.38;60.23;102862.56;6212273;23;20370;-51
2023/05/03 00:35:36;;;;;;;1.15;1.00;;;;;;;16.38;60.08;102856.34;6212288;23;20017;-53
2023/05/03 00:38:02;;;;;;;2.33;0.90;;;;;;;16.37;59.85;102855.47;6212190;23;20004;-53
2023/05/03 00:40:27;;;;;;;1.20;1.00;;;;;;;16.36;59.96;102853.72;6186160;23;20039;-53
2023/05/03 00:42:52;;;;;;;1.23;1.00;;;;;;;16.35;59.91;102857.34;6212273;23;20419;-53
2023/05/03 00:45:18;;;;;;;1.77;0.93;;;;;;;16.35;60.07;102857.34;6212050;23;20084;-53
2023/05/03 00:47:43;;;;;;;1.00;0.90;;;;;;;16.36;59.91;102864.47;6212167;23;20005;-53
2023/05/03 00:50:10;;;;;;;1.88;1.00;;;;;;;16.35;59.91;102862.75;6212156;23;20383;-53
2023/05/03 00:52:37;;;;;;;1.98;1.10;;;;;;;16.33;59.77;102861.09;6214468;23;20012;-53
2023/05/03 00:55:03;;;;;;;1.00;0.90;;;;;;;16.33;59.88;102858.41;6214208;23;20004;-52
2023/05/03 00:57:30;;;;;;;1.38;0.85;;;;;;;16.32;59.81;102857.56;6214854;23;20327;-53
2023/05/03 00:59:58;;;;;;;1.00;1.00;;;;;;;16.33;59.57;102855.72;6214024;23;20011;-52
2023/05/03 01:02:24;;;;;;;0.95;0.82;;;;;;;16.31;59.68;102850.44;6213998;23;20008;-53
2023/05/03 01:04:52;;;;;;;2.10;1.10;;;;;;;16.31;59.78;102850.44;6214152;23;20005;-53
2023/05/03 01:07:32;;;;;;;1.85;1.30;;;;;;;16.32;59.82;102845.94;6187885;23;20072;-53
2023/05/03 01:10:40;;;;;;;1.10;1.00;;;;;;;16.33;59.84;102844.97;6214677;23;20004;-52
2023/05/03 01:13:41;;;;;;;1.05;0.90;;;;;;;16.31;59.68;102846.88;6214159;23;20425;-52
2023/05/03 01:16:22;;;;;;;0.73;0.70;;;;;;;16.30;59.70;102848.72;6214182;23;20119;-53
2023/05/03 01:18:53;;;;;;;0.70;0.70;;;;;;;16.32;59.54;102854.88;6214128;23;20032;-53
2023/05/03 01:21:21;;;;;;;1.98;0.85;;;;;;;16.31;59.54;102846.88;6214303;23;20004;-53
2023/05/03 01:23:58;;;;;;;1.58;1.10;;;;;;;16.29;59.29;102857.72;6213933;23;20007;-52
2023/05/03 01:26:27;;;;;;;1.70;0.90;;;;;;;16.29;59.36;102857.72;6213867;23;20008;-52
2023/05/03 01:28:53;;;;;;;1.30;1.15;;;;;;;16.28;59.41;102856.00;6213662;23;20054;-52
2023/05/03 01:31:42;;;;;;;1.73;1.30;;;;;;;16.30;59.31;102858.59;6214093;23;20465;-52
2023/05/03 01:34:11;;;;;;;0.80;0.80;;;;;;;16.25;59.17;102866.91;6213853;23;20004;-53
2023/05/03 01:36:41;;;;;;;2.00;1.08;;;;;;;16.26;59.37;102857.00;6214021;23;20191;-53
2023/05/03 01:39:19;;;;;;;0.85;0.85;;;;;;;16.27;59.29;102862.31;6213833;23;20000;-52
2023/05/03 01:41:48;;;;;;;0.80;0.80;;;;;;;16.25;59.06;102866.91;6213580;23;20019;-53
2023/05/03 01:44:15;;;;;;;1.60;0.80;;;;;;;16.24;59.37;102865.19;6213625;23;20036;-53
2023/05/03 01:46:44;;;;;;;1.27;1.02;;;;;;;16.23;59.20;102864.28;6213656;23;20036;-53
2023/05/03 01:49:10;;;;;;;1.40;0.93;;;;;;;16.23;58.82;102863.44;6213543;23;20008;-53
2023/05/03 01:51:36;;;;;;;1.33;1.15;;;;;;;16.23;59.34;102852.69;6213631;23;20086;-53
2023/05/03 01:54:02;;;;;;;0.95;0.80;;;;;;;16.21;59.30;102854.59;6214318;23;20014;-53
2023/05/03 01:56:27;;;;;;;0.85;0.85;;;;;;;16.21;59.22;102865.34;6213942;23;20414;-53
2023/05/03 01:58:53;;;;;;;1.42;1.02;;;;;;;16.22;59.19;102864.38;6213439;23;20375;-53
2023/05/03 02:01:18;;;;;;;0.82;0.82;;;;;;;16.20;58.87;102861.81;6213593;23;20013;-53
2023/05/03 02:03:43;;;;;;;0.75;0.65;;;;;;;16.21;59.18;102865.34;6213602;23;20014;-53
2023/05/03 02:06:09;;;;;;;0.80;0.80;;;;;;;16.20;59.02;102860.91;6213597;23;20004;-53
2023/05/03 02:08:34;;;;;;;2.15;0.88;;;;;;;16.18;58.60;102861.03;6214293;23;20013;-53
2023/05/03 02:10:59;;;;;;;0.80;0.80;;;;;;;16.18;58.89;102861.03;6213536;23;20035;-53
2023/05/03 02:13:25;;;;;;;1.40;1.00;;;;;;;16.18;58.85;102860.13;6213442;23;20070;-53
2023/05/03 02:15:50;;;;;;;0.82;0.82;;;;;;;16.18;58.68;102866.41;6213344;23;20012;-53
2023/05/03 02:18:17;;;;;;;0.85;0.73;;;;;;;16.17;58.92;102858.41;6186871;23;20084;-53
2023/05/03 02:20:45;;;;;;;1.60;1.10;;;;;;;16.18;58.73;102860.13;6213292;23;20009;-53
2023/05/03 02:23:11;;;;;;;1.05;0.98;;;;;;;16.16;58.92;102851.28;6213477;23;20005;-53
2023/05/03 02:25:36;;;;;;;0.80;0.80;;;;;;;16.16;58.78;102857.56;6213617;23;20088;-53
2023/05/03 02:28:02;;;;;;;0.90;0.90;;;;;;;16.15;58.65;102850.44;6213910;23;20008;-53
2023/05/03 02:30:27;;;;;;;2.55;0.88;;;;;;;16.15;58.78;102850.44;6213126;23;20009;-53
2023/05/03 02:32:53;;;;;;;0.82;0.82;;;;;;;16.14;58.73;102847.81;6213431;23;20872;-52
2023/05/03 02:35:18;;;;;;;0.80;0.80;;;;;;;16.14;58.30;102837.06;6213247;23;20031;-53
2023/05/03 02:37:43;;;;;;;1.85;0.88;;;;;;;16.14;58.26;102834.38;6213339;23;20335;-53
2023/05/03 02:40:09;;;;;;;1.20;0.80;;;;;;;16.13;58.40;102824.59;6213012;23;20465;-53
2023/05/03 02:42:35;;;;;;;1.88;0.80;;;;;;;16.12;58.38;102818.34;6213799;23;20012;-53
2023/05/03 02:45:00;;;;;;;1.00;0.70;;;;;;;16.10;58.29;102814.88;6213301;23;20012;-53
2023/05/03 02:47:26;;;;;;;0.73;0.70;;;;;;;16.11;58.57;102815.75;6213188;23;20427;-53
2023/05/03 02:49:51;;;;;;;0.70;0.70;;;;;;;16.10;58.23;102809.50;6213095;23;20107;-53
2023/05/03 02:52:17;;;;;;;0.98;0.98;;;;;;;16.10;58.32;102804.13;6212945;23;20009;-53
2023/05/03 02:54:42;;;;;;;1.50;0.98;;;;;;;16.09;58.11;102805.09;6213133;23;20015;-53
2023/05/03 02:57:08;;;;;;;0.90;0.90;;;;;;;16.08;58.09;102797.97;6213093;23;20008;-53
2023/05/03 02:59:33;;;;;;;0.88;0.80;;;;;;;16.09;58.09;102790.75;6213601;23;20379;-53
2023/05/03 03:01:58;;;;;;;0.70;0.70;;;;;;;16.08;58.11;102795.28;6213052;23;20008;-53
2023/05/03 03:04:24;;;;;;;1.33;1.00;;;;;;;16.07;58.20;102798.94;6213123;23;20009;-53
2023/05/03 03:06:52;;;;;;;1.45;1.20;;;;;;;16.07;58.15;102800.72;6213025;23;20000;-53
2023/05/03 03:09:18;;;;;;;1.42;0.85;;;;;;;16.06;58.15;102801.69;6213090;23;20039;-53
2023/05/03 03:11:43;;;;;;;1.40;0.93;;;;;;;16.07;58.01;102811.47;6212963;23;20415;-53
2023/05/03 03:14:08;;;;;;;0.93;0.82;;;;;;;16.06;58.15;102817.81;6212194;23;20020;-54
2023/05/03 03:16:34;;;;;;;2.05;0.95;;;;;;;16.05;58.36;102826.81;6213309;23;20015;-53
2023/05/03 03:18:59;;;;;;;0.77;0.65;;;;;;;16.03;58.20;102819.75;6186378;23;20004;-53
2023/05/03 03:21:25;;;;;;;1.02;0.93;;;;;;;16.05;58.19;102816.06;6212784;23;20011;-53
2023/05/03 03:23:50;;;;;;;1.30;1.20;;;;;;;16.02;57.82;102815.28;6213041;23;20335;-53
2023/05/03 03:26:16;;;;;;;0.88;0.80;;;;;;;16.02;58.05;102818.00;6213082;23;20012;-53
2023/05/03 03:28:41;;;;;;;2.40;0.88;;;;;;;16.01;57.88;102827.03;6212550;23;20438;-52
2023/05/03 03:31:07;;;;;;;1.48;0.90;;;;;;;16.01;57.98;102829.69;6186532;23;20017;-53
2023/05/03 03:33:32;;;;;;;0.88;0.88;;;;;;;16.01;57.97;102829.69;6212612;23;20036;-53
2023/05/03 03:35:57;;;;;;;1.08;0.90;;;;;;;16.01;57.82;102832.38;6213029;23;20039;-51
2023/05/03 03:38:23;;;;;;;1.27;0.85;;;;;;;16.01;57.66;102826.13;6212657;23;20309;-53
2023/05/03 03:40:48;;;;;;;1.10;0.85;;;;;;;15.99;57.64;102820.88;6212579;23;20416;-53
2023/05/03 03:43:13;;;;;;;0.80;0.80;;;;;;;15.98;57.64;102821.81;6212629;23;20009;-53
2023/05/03 03:45:39;;;;;;;0.80;0.80;;;;;;;15.99;57.89;102818.19;6213221;23;20016;-53
2023/05/03 03:48:05;;;;;;;1.45;0.93;;;;;;;15.98;57.88;102813.75;6213217;23;20024;-53
2023/05/03 03:50:30;;;;;;;0.88;0.88;;;;;;;15.97;57.92;102814.72;6212833;23;20042;-53
2023/05/03 03:52:55;;;;;;;2.00;0.93;;;;;;;15.97;57.86;102803.97;6212572;23;20011;-53
2023/05/03 03:55:21;;;;;;;0.68;0.65;;;;;;;15.97;57.68;102808.44;6212536;23;20022;-53
2023/05/03 03:57:46;;;;;;;0.68;0.60;;;;;;;15.96;57.50;102806.72;6212481;23;20005;-52
2023/05/03 04:00:12;;;;;;;1.30;0.82;;;;;;;15.96;57.58;102823.72;6212444;23;20001;-53
2023/05/03 04:02:37;;;;;;;0.70;0.70;;;;;;;15.95;57.96;102816.59;6213095;23;20147;-53
2023/05/03 04:05:03;;;;;;;0.80;0.80;;;;;;;15.95;57.81;102831.84;6212830;23;20072;-52
2023/05/03 04:07:29;;;;;;;0.75;0.75;;;;;;;15.94;57.30;102825.63;6136836;23;20008;-53
2023/05/03 04:09:55;;;;;;;1.25;0.80;;;;;;;15.93;57.58;102826.56;6212478;23;20000;-53
2023/05/03 04:12:21;;;;;;;0.85;0.80;;;;;;;15.93;57.64;102828.38;6212492;23;20496;-53
2023/05/03 04:14:46;;;;;;;1.00;0.80;;;;;;;15.93;57.69;102839.97;6212901;23;20004;-53
2023/05/03 04:17:12;;;;;;;1.45;1.00;;;;;;;15.92;57.54;102838.25;6212413;23;20012;-53
2023/05/03 04:19:37;;;;;;;1.85;0.90;;;;;;;15.92;57.42;102832.88;6213126;23;20062;-53
2023/05/03 04:22:03;;;;;;;0.60;0.60;;;;;;;15.92;57.43;102838.25;6212589;23;20135;-53
2023/05/03 04:24:29;;;;;;;1.10;0.90;;;;;;;15.91;57.24;102830.28;6212500;23;20004;-53
2023/05/03 04:26:55;;;;;;;0.60;0.60;;;;;;;15.90;57.65;102842.84;6212349;23;20013;-53
2023/05/03 04:29:20;;;;;;;1.10;1.00;;;;;;;15.90;57.47;102834.78;6212034;23;20036;-53
2023/05/03 04:31:46;;;;;;;1.33;0.85;;;;;;;15.90;57.29;102831.25;6212493;23;20036;-53
2023/05/03 04:34:14;;;;;;;0.70;0.70;;;;;;;15.88;57.60;102836.69;6212602;23;20009;-51
2023/05/03 04:36:41;;;;;;;0.70;0.70;;;;;;;15.88;57.52;102844.75;6213192;23;20019;-53
2023/05/03 04:39:07;;;;;;;0.80;0.80;;;;;;;15.89;57.35;102853.69;6212394;23;20028;-52
2023/05/03 04:41:33;;;;;;;1.15;0.88;;;;;;;15.86;57.28;102854.72;6211901;23;20021;-53
2023/05/03 04:43:58;;;;;;;1.20;1.10;;;;;;;15.87;57.11;102855.59;6212265;23;20020;-52
2023/05/03 04:46:24;;;;;;;1.17;0.93;;;;;;;15.87;57.22;102859.13;6212082;23;20008;-53
2023/05/03 04:48:50;;;;;;;1.50;0.90;;;;;;;15.87;57.27;102871.69;6212121;23;20004;-53
2023/05/03 04:51:15;;;;;;;1.30;0.88;;;;;;;15.86;57.16;102880.69;6212079;23;20009;-53
2023/05/03 04:53:40;;;;;;;0.75;0.75;;;;;;;15.86;57.57;102880.69;6212865;23;20043;-53
2023/05/03 04:56:06;;;;;;;1.00;0.90;;;;;;;15.85;57.35;102885.22;6212198;23;20423;-53
2023/05/03 04:58:31;;;;;;;1.10;0.80;;;;;;;15.84;57.07;102888.88;6212302;23;20044;-53
2023/05/03 05:00:58;;;;;;;0.82;0.80;;;;;;;15.85;57.22;102892.41;6211984;23;20067;-53
2023/05/03 05:03:23;;;;;;;1.20;0.90;;;;;;;15.84;57.23;102888.88;6212149;23;20004;-53
2023/05/03 05:05:50;;;;;;;0.70;0.70;;;;;;;15.85;57.15;102900.47;6212152;23;20051;-53
2023/05/03 05:08:15;;;;;;;0.90;0.90;;;;;;;15.83;57.18;102896.03;6211963;23;20674;-54
2023/05/03 05:10:41;;;;;;;0.75;0.70;;;;;;;15.84;57.37;102896.91;6212931;23;20063;-52
2023/05/03 05:13:06;;;;;;;1.45;1.10;;;;;;;15.84;56.94;102899.59;6211932;23;20328;-51
2023/05/03 05:15:32;;;;;;;2.50;1.20;;;;;;;15.82;57.18;102896.09;6211665;23;20015;-53
2023/05/03 05:17:57;;;;;;;0.68;0.68;;;;;;;15.81;57.19;102889.88;6211862;23;20012;-52
2023/05/03 05:20:22;;;;;;;0.85;0.85;;;;;;;15.83;56.98;102898.72;6211841;23;20004;-53
2023/05/03 05:22:48;;;;;;;0.77;0.77;;;;;;;15.82;57.02;102893.41;6211765;23;20331;-54
2023/05/03 05:25:13;;;;;;;0.68;0.68;;;;;;;15.82;56.98;102896.09;6212774;23;20415;-53
2023/05/03 05:27:39;;;;;;;1.58;0.80;;;;;;;15.81;57.10;102892.56;6212620;23;20078;-51
2023/05/03 05:30:05;;;;;;;1.58;0.90;;;;;;;15.80;56.71;102898.91;6211752;23;20004;-51
2023/05/03 05:32:30;;;;;;;0.60;0.60;;;;;;;15.80;56.90;102892.63;6211941;23;20012;-52
2023/05/03 05:34:56;;;;;;;0.80;0.80;;;;;;;15.80;57.03;102898.00;6212059;23;20083;-53
2023/05/03 05:37:22;;;;;;;0.60;0.60;;;;;;;15.79;57.12;102894.47;6213078;23;20009;-53
2023/05/03 05:39:47;;;;;;;0.80;0.80;;;;;;;15.79;57.12;102896.28;6213915;23;20296;-53
2023/05/03 05:42:13;;;;;;;1.38;0.80;;;;;;;15.78;57.06;102892.75;6214287;23;20087;-53
2023/05/03 05:44:38;;;;;;;1.10;0.70;;;;;;;15.78;57.13;102890.06;6187775;23;20040;-52
2023/05/03 05:47:04;;;;;;;1.00;0.90;;;;;;;15.77;56.90;102896.38;6212324;23;20070;-53
2023/05/03 05:49:29;;;;;;;0.77;0.77;;;;;;;15.77;56.93;102887.44;6213776;23;20039;-53
2023/05/03 05:51:56;;;;;;;2.35;0.90;;;;;;;15.77;57.14;102895.50;6213508;23;20334;-51
2023/05/03 05:54:21;;;;;;;0.95;0.90;;;;;;;15.77;57.06;102895.50;6213644;23;20724;-53
2023/05/03 05:56:47;;;;;;;0.77;0.77;;;;;;;15.77;57.49;102895.50;6213195;23;20081;-53
2023/05/03 05:59:12;;;;;;;1.35;1.10;;;;;;;15.76;57.04;102902.69;6213945;23;20028;-52
2023/05/03 06:01:40;;;;;;;1.88;0.98;;;;;;;15.76;56.90;102904.50;6213490;23;20012;-52
2023/05/03 06:04:07;;;;;;;0.90;0.90;;;;;;;15.75;57.30;102902.78;6213422;23;20016;-51
2023/05/03 06:06:32;;;;;;;0.98;0.68;;;;;;;15.75;57.34;102900.94;6213148;23;20008;-52
2023/05/03 06:08:57;;;;;;;0.70;0.70;;;;;;;15.75;57.36;102910.84;6213564;23;20123;-52
2023/05/03 06:11:23;;;;;;;0.98;0.80;;;;;;;15.74;57.34;102912.63;6213243;23;20009;-53
2023/05/03 06:13:48;;;;;;;0.93;0.70;;;;;;;15.76;57.43;102901.81;6213541;23;20008;-53
2023/05/03 06:16:13;;;;;;;1.90;0.80;;;;;;;15.75;57.15;102905.47;6213875;23;20011;-53
2023/05/03 06:18:39;;;;;;;0.93;0.85;;;;;;;15.74;57.16;102899.19;6213202;23;20009;-50
2023/05/03 06:21:04;;;;;;;1.45;0.93;;;;;;;15.73;57.22;102896.59;6213364;23;20005;-52
2023/05/03 06:23:31;;;;;;;0.73;0.63;;;;;;;15.75;57.29;102892.03;6213566;23;20477;-52
2023/05/03 06:25:56;;;;;;;0.85;0.75;;;;;;;15.74;57.17;102892.97;6213517;23;20014;-53
2023/05/03 06:28:22;;;;;;;1.73;0.70;;;;;;;15.74;57.24;102892.97;6213271;23;20009;-52
2023/05/03 06:30:48;;;;;;;0.90;0.85;;;;;;;15.72;57.25;102893.00;6212146;23;20075;-53
2023/05/03 06:33:14;;;;;;;1.08;0.60;;;;;;;15.73;57.12;102894.78;6213857;23;20371;-53
2023/05/03 06:35:39;;;;;;;0.52;0.50;;;;;;;15.72;57.18;102894.84;6212997;23;20063;-53
2023/05/03 06:38:05;;;;;;;0.93;0.75;;;;;;;15.72;57.32;102886.78;6213123;23;20008;-52
2023/05/03 06:40:32;;;;;;;0.65;0.65;;;;;;;15.72;57.31;102889.47;6212674;23;20017;-52
2023/05/03 06:42:57;;;;;;;0.80;0.80;;;;;;;15.72;57.39;102889.47;6213323;23;20147;-52
2023/05/03 06:45:22;;;;;;;0.75;0.73;;;;;;;15.71;57.44;102880.56;6213211;23;20471;-50
2023/05/03 06:47:49;;;;;;;0.68;0.68;;;;;;;15.72;57.11;102878.72;6186584;23;20335;-51
2023/05/03 06:50:14;;;;;;;0.75;0.60;;;;;;;15.72;57.36;102874.22;6213862;23;20387;-53
2023/05/03 06:52:40;;;;;;;0.60;0.60;;;;;;;15.73;57.32;102872.41;6212552;23;20068;-53
2023/05/03 06:55:06;;;;;;;0.88;0.70;;;;;;;15.72;57.49;102874.22;6186290;23;20012;-53
2023/05/03 06:57:32;;;;;;;1.30;0.70;;;;;;;15.71;57.34;102872.50;6212845;23;20040;-52
2023/05/03 06:59:58;;;;;;;1.17;0.90;;;;;;;15.72;57.51;102876.91;6212448;23;20031;-53
2023/05/03 07:02:24;;;;;;;1.45;0.77;;;;;;;15.72;57.46;102876.03;6212978;23;20012;-52
2023/05/03 07:04:50;;;;;;;1.15;0.70;;;;;;;15.71;57.38;102877.00;6212657;23;20059;-52
2023/05/03 07:07:15;;;;;;;0.75;0.75;;;;;;;15.72;57.52;102878.72;6212521;23;20013;-53
2023/05/03 07:09:40;;;;;;;0.63;0.60;;;;;;;15.72;57.37;102884.09;6212649;23;20001;-53
2023/05/03 07:12:06;;;;;;;0.93;0.68;;;;;;;15.71;57.41;102882.38;6213037;23;20011;-53
2023/05/03 07:14:31;;;;;;;0.70;0.70;;;;;;;15.72;57.71;102884.09;6212699;23;20371;-52
2023/05/03 07:16:57;;;;;;;0.70;0.70;;;;;;;15.72;57.64;102889.47;6211255;23;20016;-53
2023/05/03 07:19:22;;;;;;;1.13;0.93;;;;;;;15.71;57.53;102877.88;6211152;23;20016;-53
2023/05/03 07:21:48;;;;;;;0.57;0.57;;;;;;;15.71;57.48;102888.59;6211799;23;20407;-53
2023/05/03 07:24:13;;;;;;;0.70;0.70;;;;;;;15.72;57.63;102889.47;6211537;23;20004;-53
2023/05/03 07:26:38;;;;;;;1.75;0.70;;;;;;;15.72;57.50;102889.47;6211266;23;20020;-52
2023/05/03 07:29:05;;;;;;;1.02;0.75;;;;;;;15.72;57.44;102878.72;6211281;23;20016;-51
2023/05/03 07:31:30;;;;;;;1.08;0.77;;;;;;;15.72;57.46;102881.41;6212508;23;20366;-52
2023/05/03 07:33:56;;;;;;;1.13;0.75;;;;;;;15.72;57.60;102884.09;6212831;23;20083;-52
2023/05/03 07:36:22;;;;;;;1.83;0.95;;;;;;;15.71;57.60;102880.56;6212473;23;20334;-53
2023/05/03 07:38:47;;;;;;;0.75;0.75;;;;;;;15.71;57.51;102875.19;6186765;23;20035;-52
2023/05/03 07:41:12;;;;;;;1.35;0.82;;;;;;;15.71;57.65;102871.63;6212050;23;20382;-53
2023/05/03 07:43:38;;;;;;;1.45;0.70;;;;;;;15.72;57.42;102865.28;6212773;23;20308;-53
2023/05/03 07:46:03;;;;;;;2.95;0.52;;;;;;;15.71;57.83;102856.38;6212427;23;20067;-52
2023/05/03 07:48:29;;;;;;;1.52;0.80;;;;;;;15.73;57.64;102861.69;6212158;23;20009;-53
2023/05/03 07:50:54;;;;;;;0.95;0.80;;;;;;;15.72;57.72;102859.94;6212627;23;20450;-53
2023/05/03 07:53:19;;;;;;;2.63;0.70;;;;;;;15.73;57.67;102853.63;6212991;23;20085;-53
2023/05/03 07:55:45;;;;;;;1.60;0.73;;;;;;;15.72;57.65;102852.72;6213388;23;20062;-52
2023/05/03 07:58:10;;;;;;;1.13;0.80;;;;;;;15.72;57.80;102849.19;6212327;23;20008;-53
2023/05/03 08:00:36;;;;;;;0.73;0.70;;;;;;;15.73;57.60;102848.25;6211827;23;20119;-52
2023/05/03 08:03:03;;;;;;;0.77;0.73;;;;;;;15.73;57.66;102848.25;6185270;23;20034;-53
2023/05/03 08:05:29;;;;;;;2.28;1.00;;;;;;;15.71;57.64;102839.41;6211970;23;20040;-53
2023/05/03 08:07:54;;;;;;;0.73;0.73;;;;;;;15.72;57.66;102833.06;6212502;23;20024;-52
2023/05/03 08:10:20;;;;;;;1.85;1.30;;;;;;;15.72;57.49;102828.56;6213226;23;20384;-53
2023/05/03 08:12:45;;;;;;;1.92;0.90;;;;;;;15.71;57.30;102823.28;6212375;23;20446;-52
2023/05/03 08:15:11;;;;;;;0.80;0.80;;;;;;;15.72;57.20;102819.63;6211825;23;20040;-52
2023/05/03 08:17:44;;;;;;;2.25;1.00;;;;;;;15.72;57.14;102812.44;6211283;23;20015;-53
2023/05/03 08:20:11;;;;;;;0.68;0.60;;;;;;;15.72;57.24;102814.28;6212424;23;20373;-52
2023/05/03 08:22:40;;;;;;;1.38;0.80;;;;;;;15.72;57.00;102822.31;6212294;23;20012;-52
2023/05/03 08:25:06;;;;;;;1.17;0.80;;;;;;;15.72;57.34;102823.19;6212289;23;20008;-52
2023/05/03 08:27:32;;;;;;;0.80;0.80;;;;;;;15.71;57.18;102824.16;6212677;23;20374;-53
2023/05/03 08:29:59;;;;;;;1.83;0.70;;;;;;;15.72;57.30;102823.19;6212132;23;20004;-51
2023/05/03 08:32:24;;;;;;;1.67;0.95;;;;;;;15.73;57.49;102818.69;6212136;23;20008;-50
2023/05/03 08:34:51;;;;;;;1.02;0.80;;;;;;;15.73;57.30;102824.06;6213147;23;20074;-53
2023/05/03 08:37:17;;;;;;;1.50;0.93;;;;;;;15.72;57.44;102814.28;6212961;23;20377;-53
2023/05/03 08:39:43;;;;;;;2.25;0.90;;;;;;;15.72;57.06;102816.97;6212016;23;20032;-53
2023/05/03 08:42:08;;;;;;;1.35;0.90;;;;;;;15.71;57.34;102808.03;6212129;23;20025;-52
2023/05/03 08:44:43;;;;;;;1.15;0.88;;;;;;;15.72;57.54;102812.44;6212296;23;20008;-53
2023/05/03 08:47:09;;;;;;;1.10;0.90;;;;;;;15.72;57.17;102819.63;6212454;23;20427;-53
2023/05/03 08:49:36;;;;;;;1.10;1.00;;;;;;;15.73;57.06;102816.91;6211775;23;20008;-53
2023/05/03 08:52:05;;;;;;;1.52;0.90;;;;;;;15.72;57.00;102801.69;6212100;23;20087;-53
2023/05/03 08:54:30;;;;;;;1.10;1.00;;;;;;;15.73;56.91;102810.66;6212252;23;20080;-53
2023/05/03 08:56:56;;;;;;;2.30;0.90;;;;;;;15.73;56.95;102821.38;6212211;23;20079;-52
2023/05/03 08:59:21;;;;;;;1.70;0.77;;;;;;;15.73;56.96;102826.75;6212647;23;20438;-53
2023/05/03 09:01:47;;;;;;;2.33;0.95;;;;;;;15.73;57.16;102829.44;6212010;23;20005;-52
2023/05/03 09:04:12;;;;;;;1.38;0.90;;;;;;;15.74;57.05;102828.50;6212388;23;20012;-53
2023/05/03 09:06:38;;;;;;;1.30;1.05;;;;;;;15.72;56.98;102830.38;6212071;23;20016;-53
2023/05/03 09:09:06;;;;;;;1.30;1.20;;;;;;;15.72;56.84;102830.38;6211952;23;20008;-52
2023/05/03 09:11:33;;;;;;;1.60;1.13;;;;;;;15.73;57.02;102833.03;6212132;23;20007;-53
2023/05/03 09:14:07;;;;;;;2.17;1.25;;;;;;;15.72;56.87;102823.19;6213700;23;20063;-52
2023/05/03 09:16:33;;;;;;;1.75;0.80;;;;;;;15.72;56.54;102831.25;6213998;23;20009;-53
2023/05/03 09:19:00;;;;;;;1.35;1.00;;;;;;;15.72;56.30;102827.69;6214012;23;20034;-53
2023/05/03 09:21:26;;;;;;;1.50;0.93;;;;;;;15.72;56.35;102823.19;6214010;23;20062;-53
2023/05/03 09:23:51;;;;;;;2.85;1.20;;;;;;;15.73;56.55;102826.75;6213310;23;20362;-52
2023/05/03 09:26:34;;;;;;;1.70;0.88;;;;;;;15.72;56.76;102820.50;6212397;23;20012;-52
2023/05/03 09:29:01;;;;;;;0.93;0.80;;;;;;;15.73;56.66;102824.97;6212301;23;20088;-53
2023/05/03 09:31:29;;;;;;;1.85;1.10;;;;;;;15.72;56.57;102825.00;6212450;23;20013;-53
2023/05/03 09:33:55;;;;;;;0.70;0.70;;;;;;;15.72;56.71;102814.28;6212211;23;20028;-52
2023/05/03 09:36:21;;;;;;;1.98;1.13;;;;;;;15.73;56.56;102813.34;6212887;23;20005;-52
2023/05/03 09:38:47;;;;;;;1.73;1.15;;;;;;;15.73;56.86;102816.03;6212235;23;20312;-53
2023/05/03 09:41:13;;;;;;;2.38;1.05;;;;;;;15.73;57.03;102811.53;6211950;23;20019;-52
2023/05/03 09:43:50;;;;;;;2.00;1.05;;;;;;;15.74;56.94;102813.25;6212769;23;20012;-52
2023/05/03 09:46:15;;;;;;;1.60;1.13;;;;;;;15.74;56.63;102807.03;6213516;23;20368;-52
2023/05/03 09:48:41;;;;;;;5.82;1.30;;;;;;;15.74;56.90;102809.72;6213810;23;20012;-53
2023/05/03 09:51:07;;;;;;;2.42;0.90;;;;;;;15.73;56.79;102808.84;6213655;23;20438;-52
2023/05/03 09:53:35;;;;;;;1.42;1.13;;;;;;;15.74;56.67;102801.66;6213650;23;20008;-53
2023/05/03 09:56:08;;;;;;;1.17;0.90;;;;;;;15.73;56.86;102799.91;6213587;23;20445;-52
2023/05/03 09:58:35;;;;;;;1.33;1.20;;;;;;;15.74;56.91;102796.28;6213553;23;20008;-53
2023/05/03 10:01:00;;;;;;;2.22;0.80;;;;;;;15.73;56.95;102795.44;6213468;23;20059;-53
2023/05/03 10:03:40;;;;;;;1.13;0.90;;;;;;;15.74;57.09;102796.28;6213709;23;20059;-52
2023/05/03 10:06:15;;;;;;;1.85;1.00;;;;;;;15.76;56.79;102794.38;6213888;23;20358;-53
2023/05/03 10:08:57;;;;;;;1.95;1.00;;;;;;;15.75;56.63;102806.09;6213444;23;20090;-52
2023/05/03 10:11:26;;;;;;;1.92;0.95;;;;;;;15.75;56.88;102795.34;6214219;23;20012;-52
2023/05/03 10:13:52;;;;;;;1.92;1.30;;;;;;;15.74;56.63;102791.78;6214161;23;20010;-53
2023/05/03 10:16:24;;;;;;;1.15;0.70;;;;;;;15.75;57.07;102798.88;6213170;23;20004;-52
2023/05/03 10:18:55;;;;;;;1.20;1.08;;;;;;;15.75;56.90;102795.34;6213539;23;20015;-53
2023/05/03 10:21:32;;;;;;;1.63;1.00;;;;;;;15.75;56.86;102796.22;6213665;23;20453;-53
2023/05/03 10:24:17;;;;;;;1.05;0.98;;;;;;;15.78;57.14;102795.16;6213316;23;20005;-52
2023/05/03 10:26:49;;;;;;;0.90;0.90;;;;;;;15.76;57.17;102805.13;6212798;23;20015;-53
2023/05/03 10:29:45;;;;;;;0.77;0.77;;;;;;;15.77;57.29;102791.63;6213294;23;20411;-53
2023/05/03 10:32:33;;;;;;;0.95;0.90;;;;;;;15.79;56.88;102799.59;6186838;23;20008;-51
2023/05/03 10:35:08;;;;;;;1.17;1.08;;;;;;;15.76;57.07;102797.94;6213185;23;20005;-50
2023/05/03 10:37:35;;;;;;;1.92;0.80;;;;;;;15.77;56.75;102801.50;6213529;23;20008;-52
2023/05/03 10:40:12;;;;;;;4.53;1.05;;;;;;;15.78;57.22;102804.09;6213196;23;20013;-53
2023/05/03 10:42:38;;;;;;;0.90;0.90;;;;;;;15.78;57.17;102803.22;6213153;23;20016;-53
2023/05/03 10:45:07;;;;;;;2.15;0.70;;;;;;;15.77;57.12;102802.34;6213277;23;20004;-53
2023/05/03 10:47:33;;;;;;;0.90;0.90;;;;;;;15.78;57.25;102793.38;6213217;23;20035;-53
2023/05/03 10:50:10;;;;;;;2.42;1.02;;;;;;;15.79;57.31;102797.78;6213101;23;20338;-52
2023/05/03 10:52:38;;;;;;;1.00;0.80;;;;;;;15.79;57.34;102799.59;6213117;23;20054;-52
2023/05/03 10:55:11;;;;;;;0.60;0.60;;;;;;;15.79;57.39;102802.28;6213083;23;20004;-53
2023/05/03 10:57:43;;;;;;;1.13;0.82;;;;;;;15.79;57.05;102794.22;6213126;23;20304;-53
2023/05/03 11:00:27;;;;;;;0.70;0.70;;;;;;;15.81;57.44;102789.63;6212912;23;20004;-52
2023/05/03 11:03:12;;;;;;;0.80;0.80;;;;;;;15.82;57.23;102778.81;6213644;23;20001;-52
2023/05/03 11:05:38;;;;;;;0.90;0.77;;;;;;;15.82;57.23;102796.72;6213167;23;20013;-53
2023/05/03 11:08:16;;;;;;;1.17;1.10;;;;;;;15.80;57.33;102780.72;6212827;23;20005;-53
2023/05/03 11:10:43;;;;;;;1.80;0.90;;;;;;;15.81;57.27;102777.06;6212826;23;20080;-53
2023/05/03 11:13:08;;;;;;;1.73;0.93;;;;;;;15.81;57.18;102776.19;6212883;23;20206;-53
2023/05/03 11:15:34;;;;;;;1.48;1.00;;;;;;;15.81;57.20;102766.31;6212829;23;20326;-52
2023/05/03 11:18:00;;;;;;;0.70;0.70;;;;;;;15.81;57.46;102760.94;6213190;23;20359;-53
2023/05/03 11:20:25;;;;;;;1.65;0.80;;;;;;;15.83;57.37;102764.41;6213461;23;20419;-52
2023/05/03 11:22:51;;;;;;;1.08;0.80;;;;;;;15.82;56.96;102761.81;6212782;23;20009;-53
2023/05/03 11:25:17;;;;;;;1.63;0.85;;;;;;;15.83;57.27;102768.94;6212764;23;20009;-52